KTMBMDSD

Guest
Details From KTMB - Kendall Tamiami Executive
To MDSD - Las Americas Intl
Flight Number -
Tags Generated
Created
Modified
Stats Distance 739 nm / 1,368 km
Max Altitude 0 ft / 0 m
Waypoints 3
Social Downloads 0
Likes 0
Share VATSIM

Download

Looking for another format? Having issues loading an existing format? Contact us
Advertisement - Login to hide

Notes

Generated

Route

KTMB R1515 MDSD

ID Type Via Altitude Latitude Longitude Leg Dist Tot Dist Heading (true) Name
O KTMB APT - 0 ft / 0 m 25.65057˚ -80.44079˚ - 0 nm - -
R1515 FIX - 0 ft / 0 m 18.44396˚ -69.67418˚ 738 nm 738 nm 124° / 128° -
O MDSD APT - 0 ft / 0 m 18.44396˚ -69.67418˚ 0 nm 738 nm 0° / 180° -

Altitude Profile

Advertisement - Login to hide

Weather


0- 5 10 15 20 25 30 35+ Temperature / ° C

Clouds and Precipitation
Forecast for 2017-12-11 06:00 UTC. Updated an hour ago

Ground ~20,000 ft ~40,000 ft Winds

KTMB

Details ICAO KTMB (TMB)
Name Kendall Tamiami Executive
Region United States
Timezone America/New_York (UTC-5.0)
Stats Elevation 8 ft / 2 m (AMSL)
Location 25.647825° -80.433494°
Runways 3
Magnetic Variation 6.529° W

METAR

KTMB 110153Z 32007KT 10SM CLR 10/05 A3029 RMK AO2 SLP256 T01000050

Decode

TAF

TAF KTMB 102320Z 1100/1124 33008KT P6SM SKC FM110200 33003KT P6SM SKC FM111500 34009KT P6SM SKC FM112000 01008KT P6SM FEW030

Decode

Departure Runways

ID Width Length Bearing (true) Bearing (mag) Surface Threshold Offset Overrun Length
09L 150 ft / 46 m 4,994 ft / 1,522 m 87.32° 93.85° Asphalt 0 ft / 0 m 0 ft / 0 m
09R 150 ft / 46 m 6,005 ft / 1,830 m 87.31° 93.84° Asphalt 0 ft / 0 m 0 ft / 0 m
13 150 ft / 46 m 4,003 ft / 1,220 m 127.50° 134.03° Asphalt 0 ft / 0 m 0 ft / 0 m
27L 150 ft / 46 m 6,005 ft / 1,830 m 267.31° 273.84° Asphalt 0 ft / 0 m 0 ft / 0 m
27R 150 ft / 46 m 4,994 ft / 1,522 m 267.32° 273.85° Asphalt 0 ft / 0 m 0 ft / 0 m
31 150 ft / 46 m 4,003 ft / 1,220 m 307.50° 314.03° Asphalt 0 ft / 0 m 0 ft / 0 m

MDSD

Details ICAO MDSD (SDQ)
Name Las Americas Intl
Region Dominican Republic
Timezone America/Santo_Domingo (UTC-4.0)
Stats Elevation 59 ft / 18 m (AMSL)
Location 18.429662° -69.668925°
Runways 1
Magnetic Variation 11.536° W

METAR

MDSD 110200Z 04004KT 9999 SCT018 24/23 Q1015

Decode

TAF

Not found

Destination Runways

ID Width Length Bearing (true) Bearing (mag) Surface Threshold Offset Overrun Length
17 200 ft / 61 m 11,051 ft / 3,368 m 160.78° 172.32° Asphalt 0 ft / 0 m 0 ft / 0 m
35 200 ft / 61 m 11,051 ft / 3,368 m 340.79° 352.33° Asphalt 0 ft / 0 m 0 ft / 0 m

Approach Navaids

Runway Type Ident Frequency Range Bearing (true) Bearing (mag) Slope Elevation
17 Localiser ICDO 108.90 MHz 18 nm / 33 km 160.59° 172.12° - 58 ft / 18 m (AMSL)
17 Glidescope ICDO 108.90 MHz 10 nm / 19 km 160.78° 172.32° 3.00° 35 ft / 11 m (AMSL)
17 DME ICDO 108.90 MHz 18 nm / 33 km - - - 35 ft / 11 m (AMSL)